createdAt,value
2023-03-22T00:00:54.647Z,0.00
2023-03-22T00:01:55.020Z,0.00
2023-03-22T00:02:54.724Z,0.00
2023-03-22T00:03:54.639Z,0.00
2023-03-22T00:04:54.602Z,0.00
2023-03-22T00:05:54.727Z,0.00
2023-03-22T00:06:54.716Z,0.00
2023-03-22T00:07:54.544Z,0.00
2023-03-22T00:08:54.498Z,0.00
2023-03-22T00:09:54.555Z,0.00
2023-03-22T00:10:54.463Z,0.00
2023-03-22T00:11:54.459Z,0.00
2023-03-22T00:12:54.430Z,0.00
2023-03-22T00:13:54.462Z,0.00
2023-03-22T00:14:54.425Z,0.00
2023-03-22T00:15:54.460Z,0.00
2023-03-22T00:16:54.413Z,0.00
2023-03-22T00:17:54.423Z,0.00
2023-03-22T00:18:54.390Z,0.00
2023-03-22T00:19:54.442Z,0.00
2023-03-22T00:20:54.354Z,0.00
2023-03-22T00:21:54.368Z,0.00
2023-03-22T00:22:54.339Z,0.00
2023-03-22T00:23:54.341Z,0.00
2023-03-22T00:24:54.328Z,0.00
2023-03-22T00:25:54.310Z,0.00
2023-03-22T00:26:54.297Z,0.00
2023-03-22T00:27:54.291Z,0.00
2023-03-22T00:28:54.292Z,0.00
2023-03-22T00:29:54.302Z,0.00
2023-03-22T00:30:54.255Z,0.00
2023-03-22T00:31:54.259Z,0.00
2023-03-22T00:32:54.225Z,0.00
2023-03-22T00:33:54.297Z,0.00
2023-03-22T00:34:54.245Z,0.00
2023-03-22T00:35:54.254Z,0.00
2023-03-22T00:36:54.181Z,0.00
2023-03-22T00:37:54.198Z,0.00
2023-03-22T00:38:54.171Z,0.00
2023-03-22T00:39:54.233Z,0.00
2023-03-22T00:40:54.154Z,0.00
2023-03-22T00:41:54.155Z,0.00
2023-03-22T00:42:54.118Z,0.00
2023-03-22T00:43:54.147Z,0.00
2023-03-22T00:44:54.209Z,0.00
2023-03-22T00:45:54.137Z,0.00
2023-03-22T00:46:54.109Z,0.00
2023-03-22T00:47:54.133Z,0.00
2023-03-22T00:48:54.093Z,0.00
2023-03-22T00:49:54.121Z,0.00
2023-03-22T00:50:54.043Z,0.00
2023-03-22T00:52:00.603Z,0.00
2023-03-22T00:52:54.150Z,0.00
2023-03-22T00:53:54.141Z,0.00
2023-03-22T00:54:54.048Z,0.00
2023-03-22T00:55:54.004Z,0.00
2023-03-22T00:56:54.246Z,0.00
2023-03-22T00:57:54.460Z,0.00
2023-03-22T00:58:53.953Z,0.00
2023-03-22T00:59:53.993Z,0.00
2023-03-22T01:00:54.169Z,0.00
2023-03-22T01:01:54.151Z,0.00
2023-03-22T01:02:53.948Z,0.00
2023-03-22T01:03:53.972Z,0.00
2023-03-22T01:04:53.889Z,0.00
2023-03-22T01:05:53.893Z,0.00
2023-03-22T01:06:53.863Z,0.00
2023-03-22T01:07:53.877Z,0.00
2023-03-22T01:08:53.862Z,0.00
2023-03-22T01:09:53.856Z,0.00
2023-03-22T01:10:53.834Z,0.00
2023-03-22T01:11:53.863Z,0.00
2023-03-22T01:12:53.841Z,0.00
2023-03-22T01:13:53.796Z,0.00
2023-03-22T01:14:53.812Z,0.00
2023-03-22T01:15:53.801Z,0.00
2023-03-22T01:16:53.870Z,0.00
2023-03-22T01:17:53.757Z,0.00
2023-03-22T01:18:53.727Z,0.00
2023-03-22T01:19:53.739Z,0.00
2023-03-22T01:20:53.766Z,0.00
2023-03-22T01:21:53.735Z,0.00
2023-03-22T01:22:53.717Z,0.00
2023-03-22T01:23:53.732Z,0.00
2023-03-22T01:24:53.714Z,0.00
2023-03-22T01:25:53.722Z,0.00
2023-03-22T01:26:53.670Z,0.00
2023-03-22T01:27:53.844Z,0.00
2023-03-22T01:28:53.660Z,0.00
2023-03-22T01:29:53.635Z,0.00
2023-03-22T01:30:53.683Z,0.00
2023-03-22T01:31:53.690Z,0.00
2023-03-22T01:32:53.629Z,0.00
2023-03-22T01:33:53.664Z,0.00
2023-03-22T01:34:53.638Z,0.00
2023-03-22T01:35:53.654Z,0.00
2023-03-22T01:36:53.961Z,0.00
2023-03-22T01:37:53.579Z,0.00
2023-03-22T01:38:53.755Z,0.00
2023-03-22T01:39:53.630Z,0.00
2023-03-22T01:40:53.699Z,0.00
2023-03-22T01:41:53.587Z,0.00
2023-03-22T01:42:53.803Z,0.00
2023-03-22T01:43:53.801Z,0.00
2023-03-22T01:44:53.493Z,0.00
2023-03-22T01:45:53.548Z,0.00
2023-03-22T01:46:53.468Z,0.00
2023-03-22T01:47:53.498Z,0.00
2023-03-22T01:48:53.460Z,0.00
2023-03-22T01:49:53.444Z,0.00
2023-03-22T01:50:53.412Z,0.00
2023-03-22T01:51:53.451Z,0.00
2023-03-22T01:52:53.411Z,0.00
2023-03-22T01:53:53.427Z,0.00
2023-03-22T01:54:53.366Z,0.00
2023-03-22T01:55:53.357Z,0.00
2023-03-22T01:56:53.360Z,0.00
2023-03-22T01:57:53.358Z,0.00
2023-03-22T01:58:53.323Z,0.00
2023-03-22T01:59:53.323Z,0.00
2023-03-22T02:00:53.330Z,0.00
2023-03-22T02:01:53.309Z,0.00
2023-03-22T02:02:53.419Z,0.00
2023-03-22T02:03:53.324Z,0.00
2023-03-22T02:04:53.259Z,0.00
2023-03-22T02:05:53.258Z,0.00
2023-03-22T02:06:53.247Z,0.00
2023-03-22T02:07:53.244Z,0.00
2023-03-22T02:08:53.216Z,0.00
2023-03-22T02:09:53.214Z,0.00
2023-03-22T02:10:53.202Z,0.00
2023-03-22T02:11:53.223Z,0.00
2023-03-22T02:12:53.191Z,0.00
2023-03-22T02:13:53.198Z,0.00
2023-03-22T02:14:53.154Z,0.00
2023-03-22T02:15:53.170Z,0.00
2023-03-22T02:16:53.153Z,0.00
2023-03-22T02:17:53.229Z,0.00
2023-03-22T02:18:53.146Z,0.00
2023-03-22T02:19:53.114Z,0.00
2023-03-22T02:20:53.158Z,0.00
2023-03-22T02:21:53.109Z,0.00
2023-03-22T02:22:53.083Z,0.00
2023-03-22T02:23:53.095Z,0.00
2023-03-22T02:24:53.082Z,0.00
2023-03-22T02:25:53.036Z,0.00
2023-03-22T02:26:53.081Z,0.00
2023-03-22T02:27:53.028Z,0.00
2023-03-22T02:28:53.026Z,0.00
2023-03-22T02:29:52.989Z,0.00
2023-03-22T02:30:53.015Z,0.00
2023-03-22T02:31:52.992Z,0.00
2023-03-22T02:32:52.960Z,0.00
2023-03-22T02:33:52.969Z,0.00
2023-03-22T02:34:52.950Z,0.00
2023-03-22T02:35:53.153Z,0.00
2023-03-22T02:36:52.946Z,0.00
2023-03-22T02:37:52.961Z,0.00
2023-03-22T02:38:52.984Z,0.00
2023-03-22T02:39:52.909Z,0.00
2023-03-22T02:40:52.897Z,0.00
2023-03-22T02:41:52.859Z,0.00
2023-03-22T02:42:52.886Z,0.00
2023-03-22T02:43:52.887Z,0.00
2023-03-22T02:44:52.867Z,0.00
2023-03-22T02:45:52.828Z,0.00
2023-03-22T02:46:52.856Z,0.00
2023-03-22T02:47:52.921Z,0.00
2023-03-22T02:48:52.798Z,0.00
2023-03-22T02:49:52.775Z,0.00
2023-03-22T02:50:52.793Z,0.00
2023-03-22T02:51:52.780Z,0.00
2023-03-22T02:52:52.756Z,0.00
2023-03-22T02:53:52.741Z,0.00
2023-03-22T02:54:52.765Z,0.00
2023-03-22T02:55:52.740Z,0.00
2023-03-22T02:56:52.721Z,0.00
2023-03-22T02:57:52.763Z,0.00
2023-03-22T02:58:52.716Z,0.00
2023-03-22T02:59:52.695Z,0.00
2023-03-22T03:00:52.705Z,0.00
2023-03-22T03:01:52.731Z,0.00
2023-03-22T03:02:52.662Z,0.00
2023-03-22T03:03:52.636Z,0.00
2023-03-22T03:04:52.656Z,0.00
2023-03-22T03:05:52.631Z,0.00
2023-03-22T03:06:52.635Z,0.00
2023-03-22T03:07:52.625Z,0.00
2023-03-22T03:08:52.577Z,0.00
2023-03-22T03:09:52.561Z,0.00
2023-03-22T03:10:52.669Z,0.00
2023-03-22T03:11:52.547Z,0.00
2023-03-22T03:12:52.534Z,0.00
2023-03-22T03:13:52.527Z,0.00
2023-03-22T03:14:52.578Z,0.00
2023-03-22T03:15:52.680Z,0.00
2023-03-22T03:16:52.548Z,0.00
2023-03-22T03:17:52.487Z,0.00
2023-03-22T03:18:52.497Z,0.00
2023-03-22T03:19:52.478Z,0.00
2023-03-22T03:20:52.464Z,0.00
2023-03-22T03:21:52.492Z,0.00
2023-03-22T03:22:52.445Z,0.00
2023-03-22T03:23:52.428Z,0.00
2023-03-22T03:24:52.429Z,0.00
2023-03-22T03:25:52.443Z,0.00
2023-03-22T03:26:52.436Z,0.00
2023-03-22T03:27:52.406Z,0.00
2023-03-22T03:28:52.384Z,0.00
2023-03-22T03:29:52.356Z,0.00
2023-03-22T03:30:52.369Z,0.00
2023-03-22T03:31:52.451Z,0.00
2023-03-22T03:32:52.336Z,0.00
2023-03-22T03:33:52.353Z,0.00
2023-03-22T03:34:52.332Z,0.00
2023-03-22T03:35:52.321Z,0.00
2023-03-22T03:36:52.306Z,0.00
2023-03-22T03:37:53.148Z,0.00
2023-03-22T03:38:52.388Z,0.00
2023-03-22T03:39:52.280Z,0.00
2023-03-22T03:40:52.247Z,0.00
2023-03-22T03:41:52.251Z,0.00
2023-03-22T03:42:52.239Z,0.00
2023-03-22T03:43:52.196Z,0.00
2023-03-22T03:44:52.216Z,0.00
2023-03-22T03:45:52.252Z,0.00
2023-03-22T03:46:52.217Z,0.00
2023-03-22T03:47:52.363Z,0.00
2023-03-22T03:48:52.364Z,0.00
2023-03-22T03:49:52.186Z,0.00
2023-03-22T03:50:52.156Z,0.00
2023-03-22T03:51:52.112Z,0.00
2023-03-22T03:52:52.127Z,0.00
2023-03-22T03:53:52.302Z,0.00
2023-03-22T03:54:52.137Z,0.00
2023-03-22T03:55:52.101Z,0.00
2023-03-22T03:56:52.081Z,0.00
2023-03-22T03:57:52.073Z,0.00
2023-03-22T03:58:52.131Z,0.00
2023-03-22T03:59:52.051Z,0.00
2023-03-22T04:00:52.072Z,0.00
2023-03-22T04:01:52.029Z,0.00
2023-03-22T04:02:52.019Z,0.00
2023-03-22T04:03:52.001Z,0.00
2023-03-22T04:04:52.011Z,0.00
2023-03-22T04:05:51.989Z,0.00
2023-03-22T04:06:52.031Z,0.00
2023-03-22T04:07:51.959Z,0.00
2023-03-22T04:08:51.973Z,0.00
2023-03-22T04:09:51.949Z,0.00
2023-03-22T04:10:52.015Z,0.00
2023-03-22T04:11:51.968Z,0.00
2023-03-22T04:12:51.940Z,0.00
2023-03-22T04:13:51.914Z,0.00
2023-03-22T04:14:51.896Z,0.00
2023-03-22T04:15:51.872Z,0.00
2023-03-22T04:16:51.964Z,0.00
2023-03-22T04:17:51.845Z,0.00
2023-03-22T04:18:51.979Z,0.00
2023-03-22T04:19:51.849Z,0.00
2023-03-22T04:20:51.822Z,0.00
2023-03-22T04:21:51.847Z,0.00
2023-03-22T04:22:51.975Z,0.00
2023-03-22T04:23:51.801Z,0.00
2023-03-22T04:24:51.780Z,0.00
2023-03-22T04:25:51.953Z,0.00
2023-03-22T04:26:51.766Z,0.00
2023-03-22T04:27:51.754Z,0.00
2023-03-22T04:28:52.163Z,0.00
2023-03-22T04:29:51.772Z,0.00
2023-03-22T04:30:51.855Z,0.00
2023-03-22T04:31:51.802Z,0.00
2023-03-22T04:32:51.730Z,0.00
2023-03-22T04:33:51.685Z,0.00
2023-03-22T04:34:51.707Z,0.00
2023-03-22T04:35:51.680Z,0.00
2023-03-22T04:36:51.656Z,0.00
2023-03-22T04:37:51.638Z,0.00
2023-03-22T04:38:51.636Z,0.00
2023-03-22T04:39:51.637Z,0.00
2023-03-22T04:40:51.643Z,0.00
2023-03-22T04:41:51.614Z,0.00
2023-03-22T04:42:51.602Z,0.00
2023-03-22T04:43:51.580Z,0.00
2023-03-22T04:44:51.593Z,0.00
2023-03-22T04:45:51.614Z,0.00
2023-03-22T04:46:51.558Z,0.00
2023-03-22T04:47:51.572Z,0.00
2023-03-22T04:48:51.608Z,0.00
2023-03-22T04:49:51.537Z,0.00
2023-03-22T04:50:51.519Z,0.00
2023-03-22T04:51:51.553Z,0.00
2023-03-22T04:52:51.536Z,0.00
2023-03-22T04:53:51.537Z,0.00
2023-03-22T04:54:51.481Z,0.00
2023-03-22T04:55:51.458Z,0.00
2023-03-22T04:56:51.451Z,0.00
2023-03-22T04:57:51.425Z,0.00
2023-03-22T04:58:51.452Z,0.00
2023-03-22T04:59:51.408Z,0.00
2023-03-22T05:00:51.411Z,0.00
2023-03-22T05:01:51.564Z,1.00
2023-03-22T05:02:51.409Z,1.00
2023-03-22T05:03:51.437Z,0.00
2023-03-22T05:04:51.360Z,0.00
2023-03-22T05:05:51.357Z,0.00
2023-03-22T05:06:51.321Z,1.00
2023-03-22T05:07:51.321Z,0.00
2023-03-22T05:08:51.310Z,1.00
2023-03-22T05:09:51.252Z,1.00
2023-03-22T05:10:51.254Z,4.00
2023-03-22T05:11:51.255Z,7.00
2023-03-22T05:12:51.236Z,3.00
2023-03-22T05:13:51.214Z,2.00
2023-03-22T05:14:51.246Z,2.00
2023-03-22T05:15:51.314Z,5.00
2023-03-22T05:16:51.288Z,9.00
2023-03-22T05:17:51.199Z,10.00
2023-03-22T05:18:51.165Z,14.00
2023-03-22T05:19:51.154Z,16.00
2023-03-22T05:20:51.139Z,12.00
2023-03-22T05:21:51.128Z,20.00
2023-03-22T05:22:51.133Z,23.00
2023-03-22T05:23:51.666Z,25.00
2023-03-22T05:24:51.130Z,26.00
2023-03-22T05:25:51.093Z,28.00
2023-03-22T05:26:51.102Z,32.00
2023-03-22T05:27:51.059Z,39.00
2023-03-22T05:28:51.086Z,42.00
2023-03-22T05:29:51.045Z,50.00
2023-03-22T05:30:51.050Z,54.00
2023-03-22T05:31:51.065Z,61.00
2023-03-22T05:32:51.045Z,65.00
2023-03-22T05:33:51.024Z,70.00
2023-03-22T05:34:50.995Z,75.00
2023-03-22T05:35:51.092Z,79.00
2023-03-22T05:36:50.981Z,92.00
2023-03-22T05:37:50.979Z,106.00
2023-03-22T05:38:51.006Z,109.00
2023-03-22T05:39:50.966Z,114.00
2023-03-22T05:40:50.937Z,129.00
2023-03-22T05:41:50.959Z,155.00
2023-03-22T05:42:50.937Z,177.00
2023-03-22T05:43:50.915Z,190.00
2023-03-22T05:44:50.912Z,198.00
2023-03-22T05:45:50.875Z,205.00
2023-03-22T05:46:50.926Z,214.00
2023-03-22T05:47:50.937Z,224.00
2023-03-22T05:48:50.871Z,233.00
2023-03-22T05:49:50.831Z,250.00
2023-03-22T05:50:50.850Z,266.00
2023-03-22T05:51:50.809Z,286.00
2023-03-22T05:52:50.885Z,309.00
2023-03-22T05:53:50.813Z,330.00
2023-03-22T05:54:50.819Z,346.00
2023-03-22T05:55:50.775Z,363.00
2023-03-22T05:56:50.766Z,389.00
2023-03-22T05:57:50.751Z,412.00
2023-03-22T05:58:50.779Z,437.00
2023-03-22T05:59:50.794Z,462.00
2023-03-22T06:00:50.742Z,493.00
2023-03-22T06:01:50.735Z,514.00
2023-03-22T06:02:50.794Z,546.00
2023-03-22T06:03:50.724Z,589.00
2023-03-22T06:04:50.731Z,612.00
2023-03-22T06:05:50.724Z,644.00
2023-03-22T06:06:50.722Z,674.00
2023-03-22T06:07:50.676Z,702.00
2023-03-22T06:08:50.652Z,733.00
2023-03-22T06:09:50.646Z,760.00
2023-03-22T06:10:50.869Z,796.00
2023-03-22T06:11:50.643Z,821.00
2023-03-22T06:12:50.725Z,863.00
2023-03-22T06:13:50.764Z,894.00
2023-03-22T06:14:50.587Z,904.00
2023-03-22T06:15:50.591Z,941.00
2023-03-22T06:16:50.976Z,981.00
2023-03-22T06:17:50.531Z,1019.00
2023-03-22T06:18:50.589Z,1052.00
2023-03-22T06:19:52.949Z,1095.00
2023-03-22T06:20:50.543Z,1130.00
2023-03-22T06:21:50.536Z,1149.00
2023-03-22T06:22:50.496Z,1173.00
2023-03-22T06:23:50.472Z,1185.00
2023-03-22T06:24:50.484Z,1192.00
2023-03-22T06:25:50.594Z,1208.00
2023-03-22T06:26:50.477Z,1215.00
2023-03-22T06:27:50.472Z,1239.00
2023-03-22T06:28:50.431Z,1236.00
2023-03-22T06:29:50.419Z,1239.00
2023-03-22T06:30:50.499Z,1241.00
2023-03-22T06:31:50.393Z,1236.00
2023-03-22T06:32:50.406Z,1240.00
2023-03-22T06:33:50.427Z,1231.00
2023-03-22T06:34:50.373Z,1237.00
2023-03-22T06:35:50.425Z,1239.00
2023-03-22T06:36:50.460Z,1252.00
2023-03-22T06:37:50.330Z,1247.00
2023-03-22T06:38:50.391Z,1233.00
2023-03-22T06:39:50.324Z,1240.00
2023-03-22T06:40:50.729Z,1305.00
2023-03-22T06:41:50.478Z,1514.00
2023-03-22T06:42:50.289Z,1297.00
2023-03-22T06:43:50.335Z,1275.00
2023-03-22T06:44:50.357Z,1223.00
2023-03-22T06:45:50.297Z,1145.00
2023-03-22T06:46:50.225Z,1125.00
2023-03-22T06:47:50.340Z,1072.00
2023-03-22T06:48:50.389Z,998.00
2023-03-22T06:49:50.219Z,1016.00
2023-03-22T06:50:50.782Z,974.00
2023-03-22T06:51:50.202Z,957.00
2023-03-22T06:52:50.157Z,966.00
2023-03-22T06:53:50.162Z,967.00
2023-03-22T06:54:50.313Z,986.00
2023-03-22T06:55:50.170Z,997.00
2023-03-22T06:56:50.134Z,1007.00
2023-03-22T06:57:50.407Z,1005.00
2023-03-22T06:58:51.068Z,1009.00
2023-03-22T06:59:50.124Z,1016.00
2023-03-22T07:00:50.109Z,1028.00
2023-03-22T07:01:50.078Z,1043.00
2023-03-22T07:02:52.641Z,1044.00
2023-03-22T07:03:50.074Z,1049.00
2023-03-22T07:04:50.167Z,1060.00
2023-03-22T07:05:50.045Z,1088.00
2023-03-22T07:06:50.034Z,1140.00
2023-03-22T07:07:50.010Z,1184.00
2023-03-22T07:08:51.587Z,1241.00
2023-03-22T07:09:50.010Z,1309.00
2023-03-22T07:10:49.994Z,1381.00
2023-03-22T07:11:49.990Z,1453.00
2023-03-22T07:12:49.960Z,1535.00
2023-03-22T07:13:49.986Z,1633.00
2023-03-22T07:14:49.928Z,1745.00
2023-03-22T07:15:49.966Z,1873.00
2023-03-22T07:16:50.155Z,1999.00
2023-03-22T07:17:49.961Z,2084.00
2023-03-22T07:18:49.891Z,2139.00
2023-03-22T07:19:49.921Z,2168.00
2023-03-22T07:20:49.908Z,2152.00
2023-03-22T07:21:49.899Z,2092.00
2023-03-22T07:22:49.870Z,2309.00
2023-03-22T07:23:56.364Z,2469.00
2023-03-22T07:24:56.488Z,2434.00
2023-03-22T07:25:49.854Z,2332.00
2023-03-22T07:26:49.808Z,2275.00
2023-03-22T07:27:49.901Z,2246.00
2023-03-22T07:28:49.799Z,2159.00
2023-03-22T07:29:49.793Z,2233.00
2023-03-22T07:30:49.766Z,2395.00
2023-03-22T07:31:49.859Z,2527.00
2023-03-22T07:32:50.003Z,2256.00
2023-03-22T07:33:49.781Z,2387.00
2023-03-22T07:34:49.908Z,2541.00
2023-03-22T07:35:49.777Z,2607.00
2023-03-22T07:36:49.736Z,2657.00
2023-03-22T07:37:49.972Z,2500.00
2023-03-22T07:38:49.688Z,2971.00
2023-03-22T07:39:49.690Z,3000.00
2023-03-22T07:40:49.704Z,3571.00
2023-03-22T07:41:49.672Z,3398.00
2023-03-22T07:42:49.646Z,2752.00
2023-03-22T07:43:56.677Z,3272.00
2023-03-22T07:44:49.782Z,3318.00
2023-03-22T07:45:49.624Z,3730.00
2023-03-22T07:46:49.681Z,3052.00
2023-03-22T07:47:49.657Z,2890.00
2023-03-22T07:48:49.665Z,2469.00
2023-03-22T07:49:49.592Z,4759.00
2023-03-22T07:50:49.569Z,3058.00
2023-03-22T07:51:49.581Z,2888.00
2023-03-22T07:52:49.723Z,3100.00
2023-03-22T07:53:49.553Z,3583.00
2023-03-22T07:54:49.708Z,3222.00
2023-03-22T07:55:49.555Z,4033.00
2023-03-22T07:56:49.866Z,3612.00
2023-03-22T07:57:49.517Z,3506.00
2023-03-22T07:58:49.693Z,3690.00
2023-03-22T07:59:49.506Z,3316.00
2023-03-22T08:00:49.516Z,2989.00
2023-03-22T08:01:49.513Z,3059.00
2023-03-22T08:02:49.538Z,3508.00
2023-03-22T08:03:49.452Z,2860.00
2023-03-22T08:04:51.900Z,3243.00
2023-03-22T08:05:49.413Z,3499.00
2023-03-22T08:06:49.399Z,2889.00
2023-03-22T08:07:49.433Z,3188.00
2023-03-22T08:08:49.382Z,2597.00
2023-03-22T08:09:49.373Z,2443.00
2023-03-22T08:10:49.378Z,2183.00
2023-03-22T08:11:49.451Z,2215.00
2023-03-22T08:12:49.344Z,2049.00
2023-03-22T08:13:49.386Z,1807.00
2023-03-22T08:14:49.308Z,2179.00
2023-03-22T08:15:49.320Z,1780.00
2023-03-22T08:16:49.289Z,1536.00
2023-03-22T08:17:49.303Z,1560.00
2023-03-22T08:18:49.382Z,1628.00
2023-03-22T08:19:49.258Z,2011.00
2023-03-22T08:20:49.249Z,1653.00
2023-03-22T08:21:49.246Z,1559.00
2023-03-22T08:22:49.236Z,2112.00
2023-03-22T08:23:49.936Z,2639.00
2023-03-22T08:24:49.215Z,2292.00
2023-03-22T08:25:49.210Z,1916.00
2023-03-22T08:26:49.200Z,1505.00
2023-03-22T08:27:49.191Z,1981.00
2023-03-22T08:28:49.185Z,2256.00
2023-03-22T08:29:49.204Z,1759.00
2023-03-22T08:30:49.197Z,1642.00
2023-03-22T08:31:49.189Z,1921.00
2023-03-22T08:32:49.125Z,2282.00
2023-03-22T08:33:49.124Z,2446.00
2023-03-22T08:34:49.111Z,2375.00
2023-03-22T08:35:49.230Z,2498.00
2023-03-22T08:36:49.086Z,3033.00
2023-03-22T08:37:49.420Z,3262.00
2023-03-22T08:38:49.064Z,3472.00
2023-03-22T08:39:49.048Z,3584.00
2023-03-22T08:40:49.044Z,3398.00
2023-03-22T08:41:49.064Z,3151.00
2023-03-22T08:42:49.009Z,3293.00
2023-03-22T08:43:49.021Z,3119.00
2023-03-22T08:44:48.989Z,3366.00
2023-03-22T08:45:49.056Z,4363.00
2023-03-22T08:46:49.394Z,4785.00
2023-03-22T08:47:49.793Z,4363.00
2023-03-22T08:48:49.016Z,3871.00
2023-03-22T08:49:48.953Z,3370.00
2023-03-22T08:50:48.919Z,2553.00
2023-03-22T08:51:48.934Z,2325.00
2023-03-22T08:52:48.915Z,3731.00
2023-03-22T08:53:48.889Z,4041.00
2023-03-22T08:54:48.900Z,4146.00
2023-03-22T08:55:48.892Z,5196.00
2023-03-22T08:56:48.850Z,6337.00
2023-03-22T08:57:48.901Z,5565.00
2023-03-22T08:58:48.845Z,4922.00
2023-03-22T08:59:48.851Z,4265.00
2023-03-22T09:00:49.860Z,3845.00
2023-03-22T09:01:49.027Z,2608.00
2023-03-22T09:02:48.810Z,2078.00
2023-03-22T09:03:48.795Z,1907.00
2023-03-22T09:04:48.844Z,1721.00
2023-03-22T09:05:48.792Z,1415.00
2023-03-22T09:06:48.774Z,1403.00
2023-03-22T09:07:48.781Z,1282.00
2023-03-22T09:08:48.809Z,1229.00
2023-03-22T09:09:48.731Z,1022.00
2023-03-22T09:10:48.760Z,1376.00
2023-03-22T09:11:48.805Z,2457.00
2023-03-22T09:12:48.700Z,2676.00
2023-03-22T09:13:48.778Z,2351.00
2023-03-22T09:14:48.807Z,2859.00
2023-03-22T09:15:49.091Z,2700.00
2023-03-22T09:16:48.707Z,2535.00
2023-03-22T09:17:48.763Z,3010.00
2023-03-22T09:18:49.351Z,2682.00
2023-03-22T09:19:49.011Z,2497.00
2023-03-22T09:20:48.659Z,2747.00
2023-03-22T09:21:48.615Z,2377.00
2023-03-22T09:22:48.574Z,2333.00
2023-03-22T09:23:48.601Z,2269.00
2023-03-22T09:24:48.549Z,2441.00
2023-03-22T09:25:48.573Z,2758.00
2023-03-22T09:26:48.555Z,2553.00
2023-03-22T09:27:48.532Z,2693.00
2023-03-22T09:28:49.302Z,3093.00
2023-03-22T09:29:48.583Z,3227.00
2023-03-22T09:30:48.631Z,3043.00
2023-03-22T09:31:48.487Z,3167.00
2023-03-22T09:32:48.453Z,3807.00
2023-03-22T09:33:48.499Z,4076.00
2023-03-22T09:34:48.838Z,4423.00
2023-03-22T09:35:48.519Z,4566.00
2023-03-22T09:36:48.425Z,5451.00
2023-03-22T09:37:48.413Z,5920.00
2023-03-22T09:38:48.408Z,5962.00
2023-03-22T09:39:48.401Z,6065.00
2023-03-22T09:40:48.396Z,5835.00
2023-03-22T09:41:48.407Z,4800.00
2023-03-22T09:42:48.363Z,5378.00
2023-03-22T09:43:48.402Z,5733.00
2023-03-22T09:44:48.354Z,7811.00
2023-03-22T09:45:48.328Z,7315.00
2023-03-22T09:46:48.330Z,7553.00
2023-03-22T09:47:48.366Z,6171.00
2023-03-22T09:48:49.480Z,5053.00
2023-03-22T09:49:53.848Z,5073.00
2023-03-22T09:50:48.327Z,4419.00
2023-03-22T09:51:48.376Z,4062.00
2023-03-22T09:52:48.285Z,3945.00
2023-03-22T09:53:48.274Z,3510.00
2023-03-22T09:54:48.247Z,2835.00
2023-03-22T09:55:48.378Z,2729.00
2023-03-22T09:56:48.281Z,2975.00
2023-03-22T09:57:48.715Z,2694.00
2023-03-22T09:58:48.223Z,2286.00
2023-03-22T09:59:48.198Z,2068.00
2023-03-22T10:00:48.372Z,2134.00
2023-03-22T10:01:48.419Z,1950.00
2023-03-22T10:02:48.230Z,2227.00
2023-03-22T10:03:48.192Z,2186.00
2023-03-22T10:04:48.140Z,1856.00
2023-03-22T10:05:48.128Z,2082.00
2023-03-22T10:06:48.324Z,1933.00
2023-03-22T10:07:48.426Z,1621.00
2023-03-22T10:08:48.091Z,2203.00
2023-03-22T10:09:48.100Z,2642.00
2023-03-22T10:10:48.109Z,2771.00
2023-03-22T10:11:48.116Z,3016.00
2023-03-22T10:12:48.365Z,3199.00
2023-03-22T10:13:48.146Z,3292.00
2023-03-22T10:14:48.020Z,3079.00
2023-03-22T10:15:48.115Z,4507.00
2023-03-22T10:16:48.029Z,5338.00
2023-03-22T10:17:48.003Z,6665.00
2023-03-22T10:18:47.979Z,7379.00
2023-03-22T10:19:47.997Z,9424.00
2023-03-22T10:20:47.967Z,9749.00
2023-03-22T10:21:47.986Z,10312.00
2023-03-22T10:22:48.015Z,10060.00
2023-03-22T10:23:47.938Z,10751.00
2023-03-22T10:24:48.088Z,9807.00
2023-03-22T10:25:48.004Z,10671.00
2023-03-22T10:26:47.915Z,5937.00
2023-03-22T10:27:47.928Z,8626.00
2023-03-22T10:28:48.010Z,9502.00
2023-03-22T10:29:47.881Z,8351.00
2023-03-22T10:30:47.873Z,8447.00
2023-03-22T10:31:47.989Z,9341.00
2023-03-22T10:32:57.251Z,10745.00
2023-03-22T10:33:47.824Z,10634.00
2023-03-22T10:34:47.869Z,9032.00
2023-03-22T10:35:47.833Z,13487.00
2023-03-22T10:36:47.820Z,11280.00
2023-03-22T10:37:47.789Z,9453.00
2023-03-22T10:38:47.886Z,13331.00
2023-03-22T10:39:47.798Z,10611.00
2023-03-22T10:40:48.002Z,8423.00
2023-03-22T10:41:47.954Z,7411.00
2023-03-22T10:42:47.736Z,7732.00
2023-03-22T10:43:47.724Z,15944.00
2023-03-22T10:44:47.706Z,12074.00
2023-03-22T10:45:47.745Z,15560.00
2023-03-22T10:46:47.885Z,11839.00
2023-03-22T10:47:47.786Z,17685.00
2023-03-22T10:48:47.737Z,10348.00
2023-03-22T10:49:47.843Z,9325.00
2023-03-22T10:50:47.663Z,8384.00
2023-03-22T10:51:47.677Z,12578.00
2023-03-22T10:52:47.680Z,6569.00
2023-03-22T10:53:47.730Z,9759.00
2023-03-22T10:54:47.754Z,4296.00
2023-03-22T10:55:47.693Z,11366.00
2023-03-22T10:56:47.624Z,9940.00
2023-03-22T10:57:47.612Z,12122.00
2023-03-22T10:58:47.566Z,10852.00
2023-03-22T10:59:47.655Z,7275.00
2023-03-22T11:00:47.717Z,7752.00
2023-03-22T11:01:47.839Z,7369.00
2023-03-22T11:02:47.733Z,5871.00
2023-03-22T11:03:47.547Z,8973.00
2023-03-22T11:04:47.523Z,6613.00
2023-03-22T11:05:47.589Z,5517.00
2023-03-22T11:06:47.750Z,6931.00
2023-03-22T11:07:47.495Z,6766.00
2023-03-22T11:08:47.484Z,6165.00
2023-03-22T11:09:47.447Z,5772.00
2023-03-22T11:10:47.494Z,5397.00
2023-03-22T11:11:47.419Z,5367.00
2023-03-22T11:12:47.431Z,5127.00
2023-03-22T11:13:47.455Z,5953.00
2023-03-22T11:14:47.410Z,6427.00
2023-03-22T11:15:47.392Z,5758.00
2023-03-22T11:16:47.401Z,4694.00
2023-03-22T11:17:47.384Z,5312.00
2023-03-22T11:18:47.382Z,4977.00
2023-03-22T11:19:47.334Z,4118.00
2023-03-22T11:20:47.389Z,4977.00
2023-03-22T11:21:47.355Z,5062.00
2023-03-22T11:22:47.327Z,4136.00
2023-03-22T11:23:47.521Z,4409.00
2023-03-22T11:24:47.506Z,4728.00
2023-03-22T11:25:47.294Z,4148.00
2023-03-22T11:26:47.313Z,4288.00
2023-03-22T11:27:47.253Z,4105.00
2023-03-22T11:28:47.262Z,3973.00
2023-03-22T11:29:47.251Z,3947.00
2023-03-22T11:30:47.257Z,4011.00
2023-03-22T11:31:47.272Z,4060.00
2023-03-22T11:32:47.355Z,4017.00
2023-03-22T11:33:47.301Z,3975.00
2023-03-22T11:34:47.523Z,3916.00
2023-03-22T11:35:47.461Z,3781.00
2023-03-22T11:37:47.165Z,3693.00
2023-03-22T11:38:48.268Z,3711.00
2023-03-22T11:39:47.130Z,3712.00
2023-03-22T11:40:47.132Z,3720.00
2023-03-22T11:41:47.123Z,3769.00
2023-03-22T11:42:47.118Z,3753.00
2023-03-22T11:43:47.187Z,3771.00
2023-03-22T11:44:47.133Z,3765.00
2023-03-22T11:45:47.116Z,3654.00
2023-03-22T11:46:47.071Z,3552.00
2023-03-22T11:47:47.245Z,3522.00
2023-03-22T11:48:47.218Z,3395.00
2023-03-22T11:49:47.059Z,3183.00
2023-03-22T11:50:47.031Z,3036.00
2023-03-22T11:51:47.418Z,2869.00
2023-03-22T11:52:47.020Z,2643.00
2023-03-22T11:53:46.999Z,2436.00
2023-03-22T11:54:46.974Z,2344.00
2023-03-22T11:55:46.973Z,2339.00
2023-03-22T11:56:47.322Z,2350.00
2023-03-22T11:57:46.966Z,2293.00
2023-03-22T11:58:47.031Z,2316.00
2023-03-22T11:59:46.925Z,2428.00
2023-03-22T12:00:46.923Z,2458.00
2023-03-22T12:01:46.999Z,2571.00
2023-03-22T12:02:47.033Z,2677.00
2023-03-22T12:03:47.037Z,2739.00
2023-03-22T12:04:46.986Z,2726.00
2023-03-22T12:05:46.961Z,2872.00
2023-03-22T12:06:46.845Z,3018.00
2023-03-22T12:07:46.857Z,3012.00
2023-03-22T12:08:47.607Z,2710.00
2023-03-22T12:09:46.812Z,2551.00
2023-03-22T12:10:46.799Z,2276.00
2023-03-22T12:11:46.959Z,1991.00
2023-03-22T12:12:46.821Z,2088.00
2023-03-22T12:13:46.831Z,1999.00
2023-03-22T12:14:46.771Z,2156.00
2023-03-22T12:15:47.157Z,1959.00
2023-03-22T12:16:46.899Z,1619.00
2023-03-22T12:17:46.741Z,2107.00
2023-03-22T12:18:46.743Z,2092.00
2023-03-22T12:19:46.706Z,1786.00
2023-03-22T12:20:46.801Z,1756.00
2023-03-22T12:21:46.690Z,2346.00
2023-03-22T12:22:46.796Z,2495.00
2023-03-22T12:23:46.695Z,2577.00
2023-03-22T12:24:46.728Z,2532.00
2023-03-22T12:25:46.796Z,2497.00
2023-03-22T12:26:46.640Z,2467.00
2023-03-22T12:27:46.659Z,2359.00
2023-03-22T12:28:46.666Z,2283.00
2023-03-22T12:29:46.660Z,2317.00
2023-03-22T12:30:46.623Z,2251.00
2023-03-22T12:31:46.649Z,2310.00
2023-03-22T12:32:46.661Z,2283.00
2023-03-22T12:33:46.577Z,2263.00
2023-03-22T12:34:46.606Z,2396.00
2023-03-22T12:35:46.836Z,2510.00
2023-03-22T12:36:46.599Z,2552.00
2023-03-22T12:37:46.604Z,2466.00